createdAt,value
2018-09-15T00:00:02.631Z,12.50
2018-09-15T00:01:02.618Z,12.40
2018-09-15T00:02:02.614Z,12.10
2018-09-15T00:03:02.600Z,12.60
2018-09-15T00:04:02.584Z,12.90
2018-09-15T00:05:02.592Z,14.20
2018-09-15T00:06:02.572Z,13.50
2018-09-15T00:07:02.560Z,14.10
2018-09-15T00:08:02.544Z,13.80
2018-09-15T00:09:02.531Z,14.20
2018-09-15T00:10:02.535Z,14.40
2018-09-15T00:11:02.512Z,15.00
2018-09-15T00:12:02.499Z,13.50
2018-09-15T00:13:02.489Z,13.30
2018-09-15T00:14:02.481Z,14.40
2018-09-15T00:15:02.490Z,12.80
2018-09-15T00:16:02.460Z,13.20
2018-09-15T00:17:02.447Z,13.80
2018-09-15T00:18:02.431Z,14.10
2018-09-15T00:19:02.429Z,13.40
2018-09-15T00:20:02.432Z,14.80
2018-09-15T00:21:02.400Z,12.90
2018-09-15T00:22:02.405Z,13.20
2018-09-15T00:23:02.470Z,13.80
2018-09-15T00:24:02.368Z,13.20
2018-09-15T00:25:02.360Z,12.70
2018-09-15T00:26:02.370Z,12.60
2018-09-15T00:27:02.341Z,13.20
2018-09-15T00:28:02.328Z,13.00
2018-09-15T00:29:02.314Z,12.80
2018-09-15T00:30:02.302Z,12.00
2018-09-15T00:31:02.316Z,11.50
2018-09-15T00:32:02.287Z,11.20
2018-09-15T00:33:02.273Z,11.50
2018-09-15T00:34:02.266Z,12.10
2018-09-15T00:35:02.248Z,11.30
2018-09-15T00:36:02.263Z,11.40
2018-09-15T00:37:02.249Z,11.00
2018-09-15T00:38:02.221Z,10.90
2018-09-15T00:39:02.338Z,11.60
2018-09-15T00:40:02.197Z,11.00
2018-09-15T00:41:02.185Z,11.90
2018-09-15T00:42:02.198Z,10.40
2018-09-15T00:43:02.161Z,10.90
2018-09-15T00:44:02.156Z,10.60
2018-09-15T00:45:02.145Z,11.30
2018-09-15T00:46:02.141Z,11.00
2018-09-15T00:47:02.125Z,11.10
2018-09-15T00:48:02.134Z,12.00
2018-09-15T00:49:02.098Z,10.80
2018-09-15T00:50:02.086Z,11.80
2018-09-15T00:51:02.082Z,11.50
2018-09-15T00:52:02.068Z,10.80
2018-09-15T00:53:02.075Z,10.90
2018-09-15T00:54:02.042Z,9.70
2018-09-15T00:55:02.033Z,10.60
2018-09-15T00:56:02.023Z,9.70
2018-09-15T00:57:02.031Z,11.20
2018-09-15T00:58:02.008Z,10.40
2018-09-15T00:59:01.996Z,10.40
2018-09-15T01:00:01.984Z,10.30
2018-09-15T01:01:01.969Z,10.20
2018-09-15T01:02:01.973Z,9.40
2018-09-15T01:03:01.945Z,9.80
2018-09-15T01:04:01.954Z,9.20
2018-09-15T01:05:01.928Z,8.50
2018-09-15T01:06:01.921Z,8.60
2018-09-15T01:07:01.905Z,9.50
2018-09-15T01:08:01.893Z,8.80
2018-09-15T01:09:01.903Z,8.90
2018-09-15T01:10:01.876Z,9.20
2018-09-15T01:11:01.865Z,9.20
2018-09-15T01:12:01.856Z,8.50
2018-09-15T01:13:01.838Z,8.60
2018-09-15T01:14:01.932Z,8.90
2018-09-15T01:15:01.815Z,8.10
2018-09-15T01:16:01.809Z,7.60
2018-09-15T01:17:01.816Z,8.10
2018-09-15T01:18:01.790Z,8.80
2018-09-15T01:19:01.810Z,8.20
2018-09-15T01:20:01.840Z,8.80
2018-09-15T01:21:01.759Z,8.60
2018-09-15T01:22:01.740Z,8.30
2018-09-15T01:23:01.737Z,8.60
2018-09-15T01:24:01.743Z,7.50
2018-09-15T01:25:01.727Z,7.60
2018-09-15T01:26:01.814Z,7.60
2018-09-15T01:27:01.712Z,8.60
2018-09-15T01:28:01.680Z,8.20
2018-09-15T01:29:01.672Z,7.60
2018-09-15T01:30:01.663Z,7.60
2018-09-15T01:31:01.647Z,7.60
2018-09-15T01:32:01.638Z,7.60
2018-09-15T01:33:01.646Z,7.30
2018-09-15T01:34:01.613Z,8.00
2018-09-15T01:35:01.609Z,7.40
2018-09-15T01:36:01.589Z,7.60
2018-09-15T01:37:01.584Z,7.40
2018-09-15T01:38:01.573Z,6.90
2018-09-15T01:39:01.577Z,6.90
2018-09-15T01:40:01.563Z,7.20
2018-09-15T01:41:01.539Z,6.80
2018-09-15T01:42:01.541Z,6.10
2018-09-15T01:43:01.523Z,6.50
2018-09-15T01:44:01.504Z,6.70
2018-09-15T01:45:01.515Z,6.30
2018-09-15T01:46:01.487Z,6.40
2018-09-15T01:47:01.477Z,5.90
2018-09-15T01:48:01.463Z,5.90
2018-09-15T01:49:01.453Z,6.10
2018-09-15T01:50:01.457Z,6.10
2018-09-15T01:51:01.444Z,5.70
2018-09-15T01:52:01.436Z,5.90
2018-09-15T01:53:01.409Z,6.20
2018-09-15T01:54:01.401Z,6.00
2018-09-15T01:55:01.384Z,5.70
2018-09-15T01:56:01.377Z,5.50
2018-09-15T01:57:01.383Z,5.70
2018-09-15T01:58:01.357Z,5.80
2018-09-15T01:59:01.347Z,5.80
2018-09-15T02:00:01.352Z,5.40
2018-09-15T02:01:01.321Z,5.40
2018-09-15T02:02:01.313Z,5.60
2018-09-15T02:03:01.297Z,6.00
2018-09-15T02:04:01.288Z,5.30
2018-09-15T02:05:01.305Z,5.60
2018-09-15T02:06:01.272Z,5.70
2018-09-15T02:07:01.262Z,5.80
2018-09-15T02:08:01.248Z,5.60
2018-09-15T02:09:01.234Z,5.70
2018-09-15T02:10:01.222Z,5.50
2018-09-15T02:11:01.236Z,5.80
2018-09-15T02:12:01.207Z,5.70
2018-09-15T02:13:01.191Z,5.90
2018-09-15T02:14:01.179Z,5.60
2018-09-15T02:15:01.168Z,6.00
2018-09-15T02:16:01.183Z,5.40
2018-09-15T02:17:01.155Z,5.50
2018-09-15T02:18:01.143Z,6.00
2018-09-15T02:19:01.136Z,5.80
2018-09-15T02:20:01.118Z,5.50
2018-09-15T02:21:01.122Z,6.30
2018-09-15T02:22:01.123Z,5.80
2018-09-15T02:23:01.094Z,6.10
2018-09-15T02:24:01.073Z,6.60
2018-09-15T02:25:01.065Z,6.10
2018-09-15T02:26:01.059Z,6.30
2018-09-15T02:27:01.041Z,6.60
2018-09-15T02:28:01.048Z,6.10
2018-09-15T02:29:01.065Z,6.30
2018-09-15T02:30:01.014Z,6.60
2018-09-15T02:31:01.003Z,6.30
2018-09-15T02:32:01.011Z,6.20
2018-09-15T02:33:00.979Z,6.40
2018-09-15T02:34:00.964Z,6.30
2018-09-15T02:35:00.956Z,5.90
2018-09-15T02:36:00.944Z,6.40
2018-09-15T02:37:00.960Z,6.20
2018-09-15T02:38:00.928Z,6.80
2018-09-15T02:39:00.916Z,6.70
2018-09-15T02:40:00.903Z,6.90
2018-09-15T02:41:00.889Z,6.70
2018-09-15T02:42:00.877Z,6.70
2018-09-15T02:43:00.894Z,6.50
2018-09-15T02:44:00.862Z,6.70
2018-09-15T02:45:00.845Z,6.40
2018-09-15T02:46:00.834Z,6.50
2018-09-15T02:47:00.823Z,6.50
2018-09-15T02:48:00.834Z,6.80
2018-09-15T02:49:00.805Z,6.40
2018-09-15T02:50:00.803Z,6.30
2018-09-15T02:51:00.785Z,6.20
2018-09-15T02:52:00.773Z,5.90
2018-09-15T02:53:00.777Z,5.90
2018-09-15T02:54:00.750Z,6.10
2018-09-15T02:55:00.736Z,5.70
2018-09-15T02:56:00.728Z,6.20
2018-09-15T02:57:00.719Z,6.60
2018-09-15T02:58:00.735Z,6.60
2018-09-15T02:59:00.693Z,6.80
2018-09-15T03:00:00.684Z,6.20
2018-09-15T03:01:00.677Z,6.00
2018-09-15T03:02:00.668Z,5.90
2018-09-15T03:03:00.661Z,6.20
2018-09-15T03:04:00.668Z,6.60
2018-09-15T03:05:00.629Z,6.70
2018-09-15T03:06:00.620Z,6.40
2018-09-15T03:07:00.615Z,6.00
2018-09-15T03:08:00.599Z,6.00
2018-09-15T03:09:00.590Z,6.10
2018-09-15T03:10:00.599Z,6.30
2018-09-15T03:11:00.570Z,5.80
2018-09-15T03:12:00.558Z,5.80
2018-09-15T03:13:00.546Z,6.30
2018-09-15T03:14:00.531Z,6.40
2018-09-15T03:15:00.545Z,6.10
2018-09-15T03:16:00.516Z,6.30
2018-09-15T03:17:00.519Z,5.70
2018-09-15T03:18:00.488Z,5.80
2018-09-15T03:19:00.476Z,6.40
2018-09-15T03:20:00.468Z,6.40
2018-09-15T03:21:00.459Z,5.80
2018-09-15T03:22:00.469Z,5.90
2018-09-15T03:23:00.445Z,5.70
2018-09-15T03:24:00.429Z,5.30
2018-09-15T03:25:00.436Z,5.70
2018-09-15T03:26:00.401Z,5.20
2018-09-15T03:27:00.392Z,5.50
2018-09-15T03:28:00.389Z,5.50
2018-09-15T03:29:00.375Z,5.20
2018-09-15T03:30:00.390Z,5.40
2018-09-15T03:31:00.349Z,5.50
2018-09-15T03:32:00.368Z,5.20
2018-09-15T03:33:00.330Z,4.80
2018-09-15T03:34:00.325Z,5.30
2018-09-15T03:35:00.312Z,4.70
2018-09-15T03:36:00.327Z,4.80
2018-09-15T03:37:00.288Z,4.80
2018-09-15T03:38:00.272Z,4.70
2018-09-15T03:39:00.262Z,4.90
2018-09-15T03:40:00.255Z,4.80
2018-09-15T03:41:00.247Z,4.70
2018-09-15T03:42:00.335Z,5.00
2018-09-15T03:43:00.226Z,4.20
2018-09-15T03:44:00.212Z,4.30
2018-09-15T03:45:00.200Z,4.70
2018-09-15T03:46:00.187Z,4.80
2018-09-15T03:47:00.201Z,4.30
2018-09-15T03:48:00.178Z,4.50
2018-09-15T03:49:00.157Z,4.20
2018-09-15T03:50:00.161Z,4.30
2018-09-15T03:51:00.140Z,4.30
2018-09-15T03:52:00.143Z,4.10
2018-09-15T03:53:00.116Z,4.60
2018-09-15T03:54:00.107Z,4.00
2018-09-15T03:55:00.097Z,4.00
2018-09-15T03:56:00.084Z,4.50
2018-09-15T03:57:00.089Z,4.10
2018-09-15T03:58:00.059Z,3.90
2018-09-15T03:59:00.047Z,4.10
2018-09-15T04:00:00.108Z,4.30
2018-09-15T04:01:00.031Z,3.70
2018-09-15T04:02:00.051Z,3.70
2018-09-15T04:03:00.004Z,3.90
2018-09-15T04:03:59.997Z,4.10
2018-09-15T04:04:59.987Z,4.00
2018-09-15T04:05:59.978Z,4.10
2018-09-15T04:06:59.985Z,3.70
2018-09-15T04:07:59.955Z,3.80
2018-09-15T04:08:59.943Z,3.60
2018-09-15T04:09:59.929Z,3.70
2018-09-15T04:10:59.918Z,3.80
2018-09-15T04:11:59.928Z,3.40
2018-09-15T04:12:59.907Z,4.00
2018-09-15T04:13:59.898Z,4.00
2018-09-15T04:14:59.882Z,3.70
2018-09-15T04:15:59.868Z,3.60
2018-09-15T04:16:59.881Z,3.60
2018-09-15T04:17:59.842Z,3.80
2018-09-15T04:18:59.847Z,3.80
2018-09-15T04:19:59.825Z,3.90
2018-09-15T04:20:59.811Z,3.60
2018-09-15T04:21:59.806Z,3.60
2018-09-15T04:22:59.811Z,3.60
2018-09-15T04:23:59.779Z,3.70
2018-09-15T04:24:59.771Z,3.40
2018-09-15T04:25:59.763Z,3.80
2018-09-15T04:26:59.768Z,3.50
2018-09-15T04:27:59.740Z,3.70
2018-09-15T04:28:59.725Z,4.00
2018-09-15T04:29:59.712Z,4.00
2018-09-15T04:30:59.701Z,3.50
2018-09-15T04:31:59.711Z,3.80
2018-09-15T04:32:59.684Z,3.60
2018-09-15T04:33:59.700Z,3.70
2018-09-15T04:34:59.660Z,3.20
2018-09-15T04:35:59.651Z,3.60
2018-09-15T04:36:59.658Z,3.90
2018-09-15T04:37:59.632Z,3.60
2018-09-15T04:38:59.621Z,3.80
2018-09-15T04:39:59.609Z,3.80
2018-09-15T04:40:59.597Z,3.60
2018-09-15T04:41:59.602Z,3.70
2018-09-15T04:42:59.571Z,3.60
2018-09-15T04:43:59.565Z,3.40
2018-09-15T04:44:59.554Z,3.50
2018-09-15T04:45:59.553Z,3.70
2018-09-15T04:46:59.556Z,3.80
2018-09-15T04:47:59.521Z,3.80
2018-09-15T04:48:59.513Z,3.50
2018-09-15T04:49:59.513Z,3.50
2018-09-15T04:50:59.493Z,3.50
2018-09-15T04:51:59.479Z,3.60
2018-09-15T04:52:59.476Z,3.50
2018-09-15T04:53:59.481Z,3.60
2018-09-15T04:54:59.459Z,3.20
2018-09-15T04:55:59.444Z,3.70
2018-09-15T04:56:59.462Z,3.40
2018-09-15T04:57:59.417Z,3.50
2018-09-15T04:58:59.406Z,3.60
2018-09-15T04:59:59.397Z,3.60
2018-09-15T05:00:59.379Z,3.70
2018-09-15T05:01:59.384Z,3.70
2018-09-15T05:02:59.361Z,4.10
2018-09-15T05:03:59.352Z,3.60
2018-09-15T05:04:59.339Z,3.40
2018-09-15T05:05:59.350Z,3.90
2018-09-15T05:06:59.314Z,3.70
2018-09-15T05:07:59.308Z,3.80
2018-09-15T05:08:59.296Z,4.20
2018-09-15T05:09:59.287Z,3.50
2018-09-15T05:10:59.306Z,3.90
2018-09-15T05:11:59.266Z,3.90
2018-09-15T05:12:59.291Z,3.90
2018-09-15T05:13:59.244Z,3.70
2018-09-15T05:14:59.244Z,4.20
2018-09-15T05:15:59.217Z,3.90
2018-09-15T05:16:59.231Z,3.80
2018-09-15T05:17:59.198Z,4.00
2018-09-15T05:18:59.193Z,4.00
2018-09-15T05:19:59.180Z,4.00
2018-09-15T05:20:59.186Z,3.90
2018-09-15T05:21:59.152Z,4.60
2018-09-15T05:22:59.147Z,4.50
2018-09-15T05:23:59.134Z,4.20
2018-09-15T05:24:59.125Z,4.30
2018-09-15T05:25:59.107Z,4.30
2018-09-15T05:26:59.114Z,4.20
2018-09-15T05:27:59.088Z,4.20
2018-09-15T05:28:59.081Z,4.40
2018-09-15T05:29:59.073Z,3.80
2018-09-15T05:30:59.062Z,4.50
2018-09-15T05:31:59.075Z,4.20
2018-09-15T05:32:59.038Z,4.70
2018-09-15T05:33:59.022Z,4.20
2018-09-15T05:34:59.012Z,4.20
2018-09-15T05:35:59.011Z,4.00
2018-09-15T05:36:59.117Z,4.40
2018-09-15T05:37:59.015Z,4.80
2018-09-15T05:38:58.980Z,4.20
2018-09-15T05:39:59.017Z,4.40
2018-09-15T05:40:58.950Z,4.50
2018-09-15T05:41:58.978Z,4.20
2018-09-15T05:42:58.958Z,4.70
2018-09-15T05:43:58.920Z,4.40
2018-09-15T05:44:58.905Z,4.40
2018-09-15T05:45:58.892Z,4.20
2018-09-15T05:46:58.901Z,4.40
2018-09-15T05:47:58.881Z,4.40
2018-09-15T05:48:58.864Z,4.30
2018-09-15T05:49:58.856Z,4.50
2018-09-15T05:50:58.846Z,4.70
2018-09-15T05:51:58.849Z,4.00
2018-09-15T05:52:58.841Z,4.20
2018-09-15T05:53:58.959Z,4.00
2018-09-15T05:54:58.808Z,4.30
2018-09-15T05:55:58.843Z,4.20
2018-09-15T05:56:58.818Z,4.30
2018-09-15T05:57:58.833Z,4.80
2018-09-15T05:58:58.752Z,4.00
2018-09-15T05:59:58.743Z,4.30
2018-09-15T06:00:58.736Z,4.20
2018-09-15T06:01:58.741Z,4.60
2018-09-15T06:02:58.747Z,3.90
2018-09-15T06:03:58.707Z,4.40
2018-09-15T06:04:58.690Z,4.30
2018-09-15T06:05:58.677Z,4.40
2018-09-15T06:06:58.666Z,4.50
2018-09-15T06:07:58.685Z,4.30
2018-09-15T06:08:58.650Z,4.30
2018-09-15T06:09:58.640Z,4.60
2018-09-15T06:10:58.626Z,4.30
2018-09-15T06:11:58.614Z,4.50
2018-09-15T06:12:58.606Z,4.10
2018-09-15T06:13:58.616Z,4.60
2018-09-15T06:14:58.588Z,4.50
2018-09-15T06:15:58.574Z,4.50
2018-09-15T06:16:58.563Z,4.80
2018-09-15T06:17:58.571Z,4.30
2018-09-15T06:18:58.602Z,4.30
2018-09-15T06:19:58.533Z,4.30
2018-09-15T06:20:58.541Z,4.70
2018-09-15T06:21:58.536Z,4.70
2018-09-15T06:22:58.501Z,4.30
2018-09-15T06:23:58.506Z,4.50
2018-09-15T06:24:58.479Z,4.40
2018-09-15T06:25:58.467Z,4.80
2018-09-15T06:26:58.475Z,4.60
2018-09-15T06:27:58.471Z,4.60
2018-09-15T06:28:58.453Z,4.60
2018-09-15T06:29:58.419Z,4.80
2018-09-15T06:30:58.463Z,4.60
2018-09-15T06:31:58.401Z,4.70
2018-09-15T06:32:58.392Z,4.50
2018-09-15T06:33:58.402Z,5.10
2018-09-15T06:34:58.377Z,4.70
2018-09-15T06:35:58.360Z,4.80
2018-09-15T06:36:58.347Z,4.30
2018-09-15T06:37:58.386Z,4.40
2018-09-15T06:38:58.337Z,4.80
2018-09-15T06:39:58.319Z,4.40
2018-09-15T06:40:58.306Z,4.90
2018-09-15T06:41:58.297Z,4.60
2018-09-15T06:42:58.306Z,4.30
2018-09-15T06:43:58.296Z,4.40
2018-09-15T06:44:58.263Z,4.30
2018-09-15T06:45:58.255Z,4.50
2018-09-15T06:46:58.244Z,4.50
2018-09-15T06:47:58.247Z,4.30
2018-09-15T06:48:58.216Z,4.60
2018-09-15T06:49:58.206Z,4.30
2018-09-15T06:50:58.197Z,4.50
2018-09-15T06:51:58.187Z,4.50
2018-09-15T06:52:58.193Z,4.00
2018-09-15T06:53:58.174Z,4.60
2018-09-15T06:54:58.157Z,4.30
2018-09-15T06:55:58.163Z,4.40
2018-09-15T06:56:58.131Z,4.10
2018-09-15T06:57:58.118Z,4.30
2018-09-15T06:58:58.116Z,4.30
2018-09-15T06:59:58.117Z,4.00
2018-09-15T07:00:58.121Z,3.60
2018-09-15T07:01:58.072Z,4.30
2018-09-15T07:02:58.081Z,3.80
2018-09-15T07:03:58.053Z,3.90
2018-09-15T07:04:58.046Z,4.30
2018-09-15T07:05:58.035Z,4.00
2018-09-15T07:06:58.073Z,3.90
2018-09-15T07:07:58.037Z,4.30
2018-09-15T07:08:57.998Z,4.20
2018-09-15T07:09:57.986Z,3.90
2018-09-15T07:10:57.977Z,4.10
2018-09-15T07:11:57.966Z,4.20
2018-09-15T07:12:58.040Z,4.40
2018-09-15T07:13:57.952Z,4.50
2018-09-15T07:14:57.946Z,4.20
2018-09-15T07:15:57.935Z,4.80
2018-09-15T07:16:57.923Z,4.70
2018-09-15T07:17:57.959Z,4.20
2018-09-15T07:18:57.893Z,4.60
2018-09-15T07:19:57.911Z,4.70
2018-09-15T07:20:57.898Z,4.10
2018-09-15T07:21:57.854Z,4.60
2018-09-15T07:22:57.844Z,4.50
2018-09-15T07:23:57.853Z,4.70
2018-09-15T07:24:57.826Z,4.90
2018-09-15T07:25:57.869Z,4.50
2018-09-15T07:26:57.812Z,4.40
2018-09-15T07:27:57.811Z,4.40
2018-09-15T07:28:57.804Z,4.60
2018-09-15T07:29:57.767Z,4.40
2018-09-15T07:30:57.766Z,4.60
2018-09-15T07:31:57.811Z,4.60
2018-09-15T07:32:57.760Z,5.00
2018-09-15T07:33:57.724Z,4.60
2018-09-15T07:34:57.713Z,4.70
2018-09-15T07:35:57.707Z,4.80
2018-09-15T07:36:57.697Z,4.90
2018-09-15T07:37:57.704Z,4.90
2018-09-15T07:38:57.677Z,4.60
2018-09-15T07:39:57.668Z,4.90
2018-09-15T07:40:57.663Z,5.00
2018-09-15T07:41:57.684Z,4.70
2018-09-15T07:42:57.644Z,5.10
2018-09-15T07:43:57.624Z,4.80
2018-09-15T07:44:57.612Z,5.10
2018-09-15T07:45:57.601Z,4.70
2018-09-15T07:46:57.585Z,4.90
2018-09-15T07:47:57.594Z,5.20
2018-09-15T07:48:57.570Z,5.20
2018-09-15T07:49:57.566Z,5.10
2018-09-15T07:50:57.547Z,4.80
2018-09-15T07:51:57.536Z,4.60
2018-09-15T07:52:57.545Z,4.90
2018-09-15T07:53:57.509Z,4.70
2018-09-15T07:54:57.497Z,5.10
2018-09-15T07:55:57.489Z,4.70
2018-09-15T07:56:57.481Z,5.00
2018-09-15T07:57:57.708Z,4.70
2018-09-15T07:58:57.478Z,4.40
2018-09-15T07:59:57.465Z,4.40
2018-09-15T08:00:57.465Z,4.50
2018-09-15T08:01:57.496Z,4.70
2018-09-15T08:02:57.472Z,5.10
2018-09-15T08:03:57.410Z,4.90
2018-09-15T08:04:57.393Z,4.40
2018-09-15T08:05:57.378Z,4.30
2018-09-15T08:06:57.421Z,4.50
2018-09-15T08:07:57.360Z,4.30
2018-09-15T08:08:57.497Z,4.30
2018-09-15T08:09:57.345Z,4.60
2018-09-15T08:10:57.392Z,4.70
2018-09-15T08:11:57.320Z,4.20
2018-09-15T08:12:57.304Z,4.60
2018-09-15T08:13:57.309Z,4.40
2018-09-15T08:14:57.281Z,4.50
2018-09-15T08:15:57.274Z,4.20
2018-09-15T08:16:57.276Z,4.00
2018-09-15T08:17:57.337Z,3.80
2018-09-15T08:18:57.256Z,4.30
2018-09-15T08:19:57.838Z,4.40
2018-09-15T08:20:57.220Z,4.30
2018-09-15T08:21:57.223Z,4.60
2018-09-15T08:22:57.226Z,4.30
2018-09-15T08:23:57.217Z,4.20
2018-09-15T08:24:57.200Z,3.80
2018-09-15T08:25:57.184Z,4.00
2018-09-15T08:26:57.150Z,3.80
2018-09-15T08:27:57.162Z,4.10
2018-09-15T08:28:57.132Z,4.10
2018-09-15T08:29:57.144Z,4.30
2018-09-15T08:30:57.113Z,4.20
2018-09-15T08:31:57.126Z,4.00
2018-09-15T08:32:57.094Z,4.30
2018-09-15T08:33:57.075Z,4.30
2018-09-15T08:34:57.089Z,4.10
2018-09-15T08:35:57.063Z,4.40
2018-09-15T08:36:57.046Z,3.90
2018-09-15T08:37:57.050Z,4.10
2018-09-15T08:38:57.019Z,3.70
2018-09-15T08:39:57.031Z,3.70
2018-09-15T08:40:57.008Z,3.80
2018-09-15T08:41:57.006Z,3.80
2018-09-15T08:42:57.337Z,3.40
2018-09-15T08:43:56.987Z,3.90
2018-09-15T08:44:57.001Z,4.00
2018-09-15T08:45:56.946Z,3.80
2018-09-15T08:46:56.935Z,4.00
2018-09-15T08:47:56.938Z,3.70
2018-09-15T08:48:57.030Z,3.90
2018-09-15T08:49:56.909Z,3.70
2018-09-15T08:50:56.893Z,3.40
2018-09-15T08:51:56.882Z,4.00
2018-09-15T08:52:56.892Z,3.40
2018-09-15T08:53:56.866Z,3.60
2018-09-15T08:54:56.855Z,4.10
2018-09-15T08:55:56.849Z,3.70
2018-09-15T08:56:56.831Z,3.60
2018-09-15T08:57:56.834Z,4.00
2018-09-15T08:58:56.816Z,3.30
2018-09-15T08:59:56.797Z,3.20
2018-09-15T09:00:56.788Z,3.60
2018-09-15T09:01:56.800Z,3.10
2018-09-15T09:02:56.771Z,3.20
2018-09-15T09:03:56.767Z,3.30
2018-09-15T09:04:56.785Z,3.00
2018-09-15T09:05:56.771Z,3.50
2018-09-15T09:06:56.725Z,3.20
2018-09-15T09:07:56.759Z,3.30
2018-09-15T09:08:56.700Z,3.30
2018-09-15T09:09:56.689Z,3.30
2018-09-15T09:10:56.701Z,3.30
2018-09-15T09:11:56.668Z,3.10
2018-09-15T09:12:56.658Z,3.10
2018-09-15T09:13:56.651Z,3.00
2018-09-15T09:14:56.641Z,3.10
2018-09-15T09:15:56.626Z,3.30
2018-09-15T09:16:56.630Z,3.30
2018-09-15T09:17:56.606Z,3.30
2018-09-15T09:18:56.591Z,3.50
2018-09-15T09:19:56.648Z,3.10
2018-09-15T09:20:56.572Z,3.50
2018-09-15T09:21:56.574Z,3.20
2018-09-15T09:22:57.069Z,3.20
2018-09-15T09:23:56.538Z,3.20
2018-09-15T09:24:56.530Z,2.80
2018-09-15T09:25:56.564Z,3.20
2018-09-15T09:26:56.550Z,2.90
2018-09-15T09:27:56.497Z,2.80
2018-09-15T09:28:56.487Z,2.80
2018-09-15T09:29:56.472Z,2.70
2018-09-15T09:30:56.461Z,3.10
2018-09-15T09:31:56.471Z,3.20
2018-09-15T09:32:56.450Z,3.20
2018-09-15T09:33:56.436Z,3.40
2018-09-15T09:34:56.454Z,3.60
2018-09-15T09:35:56.418Z,3.30
2018-09-15T09:36:56.419Z,3.00
2018-09-15T09:37:56.386Z,3.60
2018-09-15T09:38:56.384Z,3.00
2018-09-15T09:39:56.370Z,3.40
2018-09-15T09:40:56.358Z,3.10
2018-09-15T09:41:56.364Z,2.90
2018-09-15T09:42:56.331Z,3.40
2018-09-15T09:43:56.323Z,3.50
2018-09-15T09:44:56.553Z,3.60
2018-09-15T09:45:56.561Z,3.90
2018-09-15T09:46:56.802Z,3.90
2018-09-15T09:47:56.638Z,4.00
2018-09-15T09:48:56.270Z,3.70
2018-09-15T09:49:56.398Z,3.70
2018-09-15T09:50:56.961Z,3.80
2018-09-15T09:51:56.273Z,3.50
2018-09-15T09:52:56.269Z,3.60
2018-09-15T09:53:57.628Z,3.70
2018-09-15T09:54:56.316Z,4.40
2018-09-15T09:55:56.206Z,4.20
2018-09-15T09:56:56.241Z,4.30
2018-09-15T09:57:56.194Z,4.00
2018-09-15T09:58:56.166Z,4.60
2018-09-15T09:59:56.156Z,4.30
2018-09-15T10:00:56.140Z,4.30
2018-09-15T10:01:56.127Z,4.70
2018-09-15T10:02:56.137Z,5.40
2018-09-15T10:03:56.106Z,4.70
2018-09-15T10:04:56.108Z,4.30
2018-09-15T10:05:56.089Z,4.90
2018-09-15T10:06:56.131Z,4.40
2018-09-15T10:07:56.120Z,4.90
2018-09-15T10:08:56.095Z,5.00
2018-09-15T10:09:56.289Z,4.90
2018-09-15T10:10:56.071Z,4.90
2018-09-15T10:11:56.025Z,4.70
2018-09-15T10:12:56.027Z,5.40
2018-09-15T10:13:56.022Z,5.30
2018-09-15T10:14:55.992Z,5.30
2018-09-15T10:15:55.985Z,5.30
2018-09-15T10:16:55.972Z,5.40
2018-09-15T10:17:55.994Z,5.10
2018-09-15T10:18:55.954Z,5.40
2018-09-15T10:19:55.941Z,5.30
2018-09-15T10:20:55.922Z,5.30
2018-09-15T10:21:55.941Z,5.60
2018-09-15T10:22:55.983Z,5.50
2018-09-15T10:23:56.004Z,5.90
2018-09-15T10:24:56.149Z,6.20
2018-09-15T10:25:55.874Z,5.80
2018-09-15T10:26:55.995Z,6.20
2018-09-15T10:27:55.900Z,6.20
2018-09-15T10:28:56.381Z,5.80
2018-09-15T10:29:55.843Z,5.60
2018-09-15T10:30:55.822Z,5.90
2018-09-15T10:31:55.818Z,6.50
2018-09-15T10:32:55.812Z,6.60
2018-09-15T10:33:55.853Z,6.70
2018-09-15T10:34:55.781Z,6.50
2018-09-15T10:35:55.766Z,6.40
2018-09-15T10:36:55.757Z,7.40
2018-09-15T10:37:55.764Z,7.40
2018-09-15T10:38:55.762Z,7.00
2018-09-15T10:39:55.733Z,7.60
2018-09-15T10:40:55.707Z,6.90
2018-09-15T10:41:55.714Z,7.30
2018-09-15T10:42:55.690Z,7.30
2018-09-15T10:43:55.682Z,7.70
2018-09-15T10:44:55.690Z,7.60
2018-09-15T10:45:55.725Z,7.80
2018-09-15T10:46:55.646Z,7.80
2018-09-15T10:47:55.634Z,8.70
2018-09-15T10:48:55.637Z,8.00
2018-09-15T10:49:55.616Z,7.20
2018-09-15T10:50:55.646Z,7.30
2018-09-15T10:51:55.596Z,7.20
2018-09-15T10:52:55.598Z,7.90
2018-09-15T10:53:55.572Z,7.80
2018-09-15T10:54:55.606Z,8.00
2018-09-15T10:55:55.787Z,8.30
2018-09-15T10:56:55.753Z,8.60
2018-09-15T10:57:55.948Z,9.10
2018-09-15T10:58:55.722Z,8.80
2018-09-15T10:59:55.532Z,8.40
2018-09-15T11:00:55.534Z,8.30
2018-09-15T11:01:55.748Z,8.00
2018-09-15T11:02:55.546Z,7.30
2018-09-15T11:03:55.487Z,7.20
2018-09-15T11:04:55.536Z,7.00
2018-09-15T11:05:55.528Z,7.00
2018-09-15T11:06:55.459Z,7.40
2018-09-15T11:07:55.535Z,7.80
2018-09-15T11:08:55.528Z,7.50
2018-09-15T11:09:55.581Z,8.50
2018-09-15T11:10:58.003Z,8.10
2018-09-15T11:11:55.434Z,8.10
2018-09-15T11:12:55.537Z,7.90
2018-09-15T11:13:55.641Z,7.80
2018-09-15T11:14:55.385Z,8.10
2018-09-15T11:15:55.512Z,7.90
2018-09-15T11:16:56.005Z,8.10
2018-09-15T11:17:55.372Z,7.50
2018-09-15T11:18:55.391Z,6.50
2018-09-15T11:19:55.303Z,6.50
2018-09-15T11:20:55.400Z,6.60
2018-09-15T11:21:55.293Z,6.30
2018-09-15T11:22:55.374Z,5.60
2018-09-15T11:23:55.389Z,5.90
2018-09-15T11:24:55.484Z,5.90
2018-09-15T11:25:55.257Z,5.60
2018-09-15T11:26:55.344Z,4.90
2018-09-15T11:27:55.282Z,5.30
2018-09-15T11:28:55.206Z,5.30
2018-09-15T11:29:55.190Z,5.30
2018-09-15T11:30:55.195Z,5.70
2018-09-15T11:31:55.202Z,5.30
2018-09-15T11:32:55.165Z,4.80
2018-09-15T11:33:55.201Z,4.90
2018-09-15T11:34:55.476Z,4.70
2018-09-15T11:35:55.243Z,4.80
2018-09-15T11:36:55.130Z,4.40
2018-09-15T11:37:55.113Z,4.20
2018-09-15T11:38:55.180Z,4.00
2018-09-15T11:39:55.165Z,4.00
2018-09-15T11:40:55.096Z,4.10
2018-09-15T11:41:55.058Z,4.40
2018-09-15T11:42:55.088Z,4.60
2018-09-15T11:43:55.097Z,4.00
2018-09-15T11:44:55.032Z,3.80
2018-09-15T11:45:55.038Z,4.10
2018-09-15T11:46:55.010Z,4.30
2018-09-15T11:47:55.105Z,4.00
2018-09-15T11:48:54.981Z,4.30
2018-09-15T11:49:54.970Z,4.00
2018-09-15T11:50:54.960Z,4.30
2018-09-15T11:51:54.946Z,3.90
2018-09-15T11:52:54.995Z,4.00
2018-09-15T11:53:54.976Z,3.90
2018-09-15T11:54:54.919Z,3.90
2018-09-15T11:55:56.058Z,4.10
2018-09-15T11:56:54.894Z,3.60
2018-09-15T11:57:54.891Z,3.50
2018-09-15T11:58:54.891Z,3.70
2018-09-15T11:59:54.922Z,3.20
2018-09-15T12:00:54.858Z,3.10
2018-09-15T12:01:54.938Z,3.30
2018-09-15T12:02:54.851Z,3.30
2018-09-15T12:03:54.842Z,3.00
2018-09-15T12:04:54.820Z,3.40
2018-09-15T12:05:54.803Z,3.30
2018-09-15T12:06:54.790Z,3.50
2018-09-15T12:07:54.812Z,3.00
2018-09-15T12:08:54.801Z,2.70
2018-09-15T12:09:54.756Z,3.00
2018-09-15T12:10:54.746Z,3.30
2018-09-15T12:11:54.733Z,3.10
2018-09-15T12:12:54.742Z,3.30
2018-09-15T12:13:54.718Z,2.70
2018-09-15T12:14:54.728Z,3.10
2018-09-15T12:15:54.796Z,2.90
2018-09-15T12:16:54.678Z,2.90
2018-09-15T12:17:56.596Z,3.10
2018-09-15T12:18:54.679Z,3.40
2018-09-15T12:19:54.653Z,3.20
2018-09-15T12:20:54.663Z,3.10
2018-09-15T12:21:54.659Z,3.10
2018-09-15T12:22:54.616Z,2.70
2018-09-15T12:23:54.652Z,3.50
2018-09-15T12:24:54.619Z,3.00
2018-09-15T12:25:54.597Z,3.40
2018-09-15T12:26:54.583Z,2.90
2018-09-15T12:27:54.585Z,3.50
2018-09-15T12:28:54.569Z,3.40
2018-09-15T12:29:54.558Z,3.40
2018-09-15T12:30:54.547Z,3.50
2018-09-15T12:31:54.516Z,3.40
2018-09-15T12:32:54.512Z,3.20
2018-09-15T12:33:54.500Z,3.00
2018-09-15T12:34:54.491Z,3.30
2018-09-15T12:35:54.519Z,3.30
2018-09-15T12:36:54.469Z,3.20
2018-09-15T12:37:54.458Z,3.00
2018-09-15T12:38:54.448Z,3.10
2018-09-15T12:39:54.438Z,3.20
2018-09-15T12:40:54.460Z,3.20
2018-09-15T12:41:54.412Z,2.80
2018-09-15T12:42:54.400Z,2.90
2018-09-15T12:43:54.391Z,3.00
2018-09-15T12:44:54.404Z,3.00
2018-09-15T12:45:54.381Z,2.80
2018-09-15T12:46:54.382Z,2.50
2018-09-15T12:47:54.350Z,2.60
2018-09-15T12:48:54.334Z,2.70
2018-09-15T12:49:54.343Z,2.70
2018-09-15T12:50:54.315Z,2.90
2018-09-15T12:51:54.363Z,2.60
2018-09-15T12:52:54.298Z,3.10
2018-09-15T12:53:54.281Z,3.00
2018-09-15T12:54:54.270Z,3.00
2018-09-15T12:55:54.274Z,3.00
2018-09-15T12:56:54.297Z,2.80
2018-09-15T12:57:54.271Z,2.70
2018-09-15T12:58:54.239Z,3.20
2018-09-15T12:59:54.228Z,2.70
2018-09-15T13:00:54.202Z,2.80
2018-09-15T13:01:54.197Z,2.90
2018-09-15T13:02:54.210Z,2.90
2018-09-15T13:03:54.176Z,2.80
2018-09-15T13:04:54.167Z,2.80
2018-09-15T13:05:54.154Z,2.80
2018-09-15T13:06:54.141Z,2.80
2018-09-15T13:07:54.145Z,3.00
2018-09-15T13:08:54.142Z,2.90
2018-09-15T13:09:54.112Z,2.70
2018-09-15T13:10:54.102Z,2.50
2018-09-15T13:11:54.092Z,2.70
2018-09-15T13:12:54.111Z,2.90
2018-09-15T13:13:54.093Z,2.70
2018-09-15T13:14:54.132Z,2.70
2018-09-15T13:15:54.096Z,2.80